Cowes, United Kingdom
Current Conditions -  °F | °C
As of 8:20 AM on Friday 19 Dec 2014 (Local Time) from EGHI Reporting Station
Broken Clouds Broken Clouds  
Wind Chill: 50°   Ceiling: 4400
Heat Index: 50°   Visibility: 5mi
Dew Point: 46°   Wind: 8mph
Humidity: 87%   Direction: 290°WNW
Pressure: 29.91"   Gusts: NA
Location:  50.76°N, 1.3°W
Report Text: EGHI 190820Z 29007KT 250V320 8000 SCT034 BKN044 10/08 Q1013
Loading
Personal Weather Stations






























Interactive Weather Map New forecast layout! Learn more

10-Day Weather Forecast

Advertisements
Track Severe Weather on mobile